createdAt,value
2018-02-14T00:04:45.091Z,99317.52
2018-02-14T00:10:49.590Z,99319.88
2018-02-14T00:16:54.108Z,99320.25
2018-02-14T00:23:00.119Z,99329.15
2018-02-14T00:29:04.645Z,99328.17
2018-02-14T00:35:09.131Z,99339.64
2018-02-14T00:41:13.639Z,99334.05
2018-02-14T00:47:18.240Z,99338.31
2018-02-14T00:53:22.918Z,99345.86
2018-02-14T00:59:27.530Z,99357.52
2018-02-14T01:05:32.388Z,99359.58
2018-02-14T01:11:37.007Z,99365.47
2018-02-14T01:17:41.663Z,99372.11
2018-02-14T01:23:46.904Z,99368.16
2018-02-14T01:29:52.318Z,99375.40
2018-02-14T01:35:56.884Z,99374.99
2018-02-14T01:42:01.508Z,99386.72
2018-02-14T01:48:06.055Z,99386.58
2018-02-14T01:54:10.539Z,99390.87
2018-02-14T02:00:15.098Z,99390.12
2018-02-14T02:06:19.794Z,99388.27
2018-02-14T02:12:24.674Z,99394.06
2018-02-14T02:18:29.228Z,99396.49
2018-02-14T02:24:33.798Z,99405.87
2018-02-14T02:30:38.451Z,99412.77
2018-02-14T02:36:43.157Z,99413.68
2018-02-14T02:42:47.847Z,99414.58
2018-02-14T02:48:53.609Z,99423.01
2018-02-14T02:54:58.207Z,99418.02
2018-02-14T03:01:03.554Z,99419.45
2018-02-14T03:07:08.046Z,99428.91
2018-02-14T03:13:12.565Z,99437.33
2018-02-14T03:19:17.077Z,99434.14
2018-02-14T03:25:22.342Z,99433.58
2018-02-14T03:31:26.914Z,99431.60
2018-02-14T03:37:31.513Z,99429.06
2018-02-14T03:43:36.008Z,99438.47
2018-02-14T03:49:40.737Z,99439.95
2018-02-14T03:55:46.230Z,99446.44
2018-02-14T04:01:52.365Z,99442.57
2018-02-14T04:07:56.977Z,99459.56
2018-02-14T04:14:01.864Z,99466.17
2018-02-14T04:20:07.093Z,99465.75
2018-02-14T04:26:11.928Z,99483.04
2018-02-14T04:32:17.168Z,99487.56
2018-02-14T04:38:21.899Z,99483.63
2018-02-14T04:44:27.200Z,99490.78
2018-02-14T04:50:32.465Z,99502.50
2018-02-14T04:56:36.939Z,99502.90
2018-02-14T05:02:41.656Z,99514.39
2018-02-14T05:08:47.226Z,99526.45
2018-02-14T05:14:51.782Z,99532.30
2018-02-14T05:20:56.418Z,99538.38
2018-02-14T05:27:01.790Z,99543.15
2018-02-14T05:33:06.353Z,99549.98
2018-02-14T05:39:11.116Z,99550.33
2018-02-14T05:45:15.632Z,99565.05
2018-02-14T05:51:20.713Z,99572.28
2018-02-14T05:57:25.522Z,99576.11
2018-02-14T06:03:30.017Z,99574.22
2018-02-14T06:09:35.318Z,99577.25
2018-02-14T06:15:40.683Z,99581.02
2018-02-14T06:21:46.027Z,99589.96
2018-02-14T06:27:51.038Z,99593.55
2018-02-14T06:33:55.710Z,99600.97
2018-02-14T06:40:00.208Z,99601.10
2018-02-14T06:46:04.706Z,99608.22
2018-02-14T06:52:09.220Z,99613.57
2018-02-14T06:58:13.920Z,99611.14
2018-02-14T07:04:18.869Z,99623.67
2018-02-14T07:10:24.422Z,99630.81
2018-02-14T07:16:29.350Z,99632.30
2018-02-14T07:22:33.902Z,99630.88
2018-02-14T07:28:38.379Z,99649.51
2018-02-14T07:34:42.882Z,99652.80
2018-02-14T07:40:48.138Z,99662.08
2018-02-14T07:46:52.692Z,99660.94
2018-02-14T07:52:57.274Z,99660.73
2018-02-14T07:59:02.655Z,99652.73
2018-02-14T08:05:07.173Z,99659.25
2018-02-14T08:11:11.690Z,99669.56
2018-02-14T08:17:16.217Z,99664.00
2018-02-14T08:23:21.683Z,99678.84
2018-02-14T08:29:27.247Z,99675.20
2018-02-14T08:35:31.738Z,99677.44
2018-02-14T08:41:36.272Z,99676.76
2018-02-14T08:47:41.035Z,99675.77
2018-02-14T08:53:45.574Z,99687.31
2018-02-14T08:59:51.584Z,99692.67
2018-02-14T09:05:56.191Z,99697.53
2018-02-14T09:12:00.798Z,99709.06
2018-02-14T09:18:05.427Z,99724.66
2018-02-14T09:24:09.929Z,99719.13
2018-02-14T09:30:15.242Z,99731.94
2018-02-14T09:36:20.986Z,99741.61
2018-02-14T09:42:25.662Z,99748.91
2018-02-14T09:48:30.301Z,99746.16
2018-02-14T09:54:35.545Z,99740.59
2018-02-14T10:00:40.831Z,99751.08
2018-02-14T10:06:45.375Z,99744.49
2018-02-14T10:12:51.406Z,99742.91
2018-02-14T10:18:56.151Z,99750.88
2018-02-14T10:25:01.400Z,99740.39
2018-02-14T10:31:05.865Z,99744.90
2018-02-14T10:37:10.379Z,99751.91
2018-02-14T10:43:14.855Z,99759.55
2018-02-14T10:49:20.165Z,99755.42
2018-02-14T10:55:25.019Z,99754.49
2018-02-14T11:01:35.012Z,99739.02
2018-02-14T11:07:39.507Z,99733.70
2018-02-14T11:13:44.028Z,99736.97
2018-02-14T11:19:49.522Z,99737.97
2018-02-14T11:25:55.154Z,99716.62
2018-02-14T11:31:59.669Z,99723.16
2018-02-14T11:38:04.142Z,99720.30
2018-02-14T11:44:08.618Z,99720.17
2018-02-14T11:50:13.232Z,99720.67
2018-02-14T11:56:18.129Z,99732.17
2018-02-14T12:02:23.376Z,99733.74
2018-02-14T12:08:27.839Z,99720.80
2018-02-14T12:14:32.306Z,99732.86
2018-02-14T12:20:36.780Z,99716.35
2018-02-14T12:26:41.294Z,99710.36
2018-02-14T12:32:45.764Z,99703.20
2018-02-14T12:38:51.639Z,99700.46
2018-02-14T12:44:56.243Z,99700.94
2018-02-14T12:51:00.706Z,99691.30
2018-02-14T12:57:05.470Z,99693.49
2018-02-14T13:03:09.937Z,99690.38
2018-02-14T13:09:15.192Z,99694.04
2018-02-14T13:15:20.476Z,99687.31
2018-02-14T13:21:25.174Z,99695.31
2018-02-14T13:27:29.718Z,99694.37
2018-02-14T13:33:34.220Z,99697.64
2018-02-14T13:39:39.032Z,99699.48
2018-02-14T13:45:43.561Z,99706.65
2018-02-14T13:51:48.019Z,99701.80
2018-02-14T13:57:52.663Z,99708.11
2018-02-14T14:03:57.172Z,99707.92
2018-02-14T14:10:02.441Z,99699.20
2018-02-14T14:16:07.914Z,99688.12
2018-02-14T14:22:12.398Z,99691.86
2018-02-14T14:28:16.929Z,99689.53
2018-02-14T14:34:26.403Z,99690.73
2018-02-14T14:40:31.660Z,99689.10
2018-02-14T14:46:36.126Z,99690.84
2018-02-14T14:52:40.566Z,99698.28
2018-02-14T14:58:46.026Z,99693.42
2018-02-14T15:04:50.550Z,99701.30
2018-02-14T15:10:55.336Z,99704.09
2018-02-14T15:17:00.579Z,99707.49
2018-02-14T15:23:05.050Z,99704.09
2018-02-14T15:29:09.730Z,99706.78
2018-02-14T15:35:14.231Z,99715.28
2018-02-14T15:41:18.831Z,99720.13
2018-02-14T15:47:24.188Z,99726.03
2018-02-14T15:53:28.835Z,99721.14
2018-02-14T15:59:33.383Z,99733.35
2018-02-14T16:05:37.858Z,99739.84
2018-02-14T16:11:42.359Z,99735.72
2018-02-14T16:17:46.872Z,99737.90
2018-02-14T16:23:51.729Z,99738.44
2018-02-14T16:29:56.230Z,99736.50
2018-02-14T16:36:00.705Z,99739.30
2018-02-14T16:42:05.192Z,99737.20
2018-02-14T16:48:09.710Z,99735.38
2018-02-14T16:54:14.208Z,99744.13
2018-02-14T17:00:19.820Z,99759.88
2018-02-14T17:06:24.667Z,99765.31
2018-02-14T17:12:29.292Z,99763.82
2018-02-14T17:18:33.936Z,99761.50
2018-02-14T17:24:39.208Z,99767.55
2018-02-14T17:30:43.711Z,99775.83
2018-02-14T17:36:48.237Z,99782.16
2018-02-14T17:42:54.319Z,99786.75
2018-02-14T17:48:59.565Z,99801.98
2018-02-14T17:55:04.066Z,99805.03
2018-02-14T18:01:08.862Z,99803.87
2018-02-14T18:07:13.367Z,99813.58
2018-02-14T18:13:17.883Z,99816.28
2018-02-14T18:19:23.614Z,99816.63
2018-02-14T18:25:28.264Z,99819.98
2018-02-14T18:31:32.865Z,99821.09
2018-02-14T18:37:37.370Z,99815.61
2018-02-14T18:43:42.655Z,99816.38
2018-02-14T18:49:47.145Z,99812.64
2018-02-14T18:55:52.426Z,99820.88
2018-02-14T19:01:57.353Z,99826.57
2018-02-14T19:08:01.916Z,99809.93
2018-02-14T19:14:06.422Z,99801.20
2018-02-14T19:20:10.939Z,99799.73
2018-02-14T19:26:15.492Z,99788.30
2018-02-14T19:32:21.022Z,99794.63
2018-02-14T19:38:26.299Z,99810.36
2018-02-14T19:44:31.014Z,99806.59
2018-02-14T19:50:35.518Z,99792.52
2018-02-14T19:56:40.050Z,99800.70
2018-02-14T20:02:44.547Z,99791.33
2018-02-14T20:08:50.024Z,99802.28
2018-02-14T20:14:55.184Z,99802.90
2018-02-14T20:20:59.669Z,99803.01
2018-02-14T20:27:04.141Z,99793.36
2018-02-14T20:33:08.755Z,99794.05
2018-02-14T20:39:13.407Z,99792.95
2018-02-14T20:45:17.933Z,99794.05
2018-02-14T20:51:22.515Z,99784.82
2018-02-14T20:57:27.061Z,99756.80
2018-02-14T21:03:32.589Z,99728.96
2018-02-14T21:09:37.199Z,99719.18
2018-02-14T21:15:41.689Z,99709.06
2018-02-14T21:21:46.255Z,99710.19
2018-02-14T21:27:52.266Z,99718.01
2018-02-14T21:33:56.877Z,99727.66
2018-02-14T21:40:01.389Z,99726.40
2018-02-14T21:46:06.709Z,99726.66
2018-02-14T21:52:11.243Z,99752.83
2018-02-14T21:58:15.740Z,99746.25
2018-02-14T22:04:21.191Z,99734.41
2018-02-14T22:10:25.791Z,99728.48
2018-02-14T22:16:30.309Z,99706.23
2018-02-14T22:22:34.827Z,99703.83
2018-02-14T22:28:39.563Z,99704.85
2018-02-14T22:34:44.177Z,99723.90
2018-02-14T22:40:49.468Z,99713.27
2018-02-14T22:46:54.049Z,99707.69
2018-02-14T22:52:59.304Z,99701.94
2018-02-14T22:59:03.816Z,99699.88
2018-02-14T23:05:09.070Z,99677.16
2018-02-14T23:11:13.586Z,99679.05
2018-02-14T23:17:19.007Z,99666.02
2018-02-14T23:23:23.496Z,99667.68
2018-02-14T23:29:28.083Z,99673.14
2018-02-14T23:35:32.995Z,99688.45
2018-02-14T23:41:37.585Z,99686.32
2018-02-14T23:47:42.112Z,99683.27
2018-02-14T23:53:46.631Z,99680.78
2018-02-14T23:59:51.644Z,99677.52
